sensor_id;sensor_type;location;lat;lon;timestamp;P1;durP1;ratioP1;P2;durP2;ratioP2
76729;SDS011;65653;53.106;18.046;2023-03-01T00:01:06;36.80;;;13.20;;
76729;SDS011;65653;53.106;18.046;2023-03-01T00:03:34;39.60;;;14.60;;
76729;SDS011;65653;53.106;18.046;2023-03-01T00:06:02;40.00;;;13.80;;
76729;SDS011;65653;53.106;18.046;2023-03-01T00:08:33;34.70;;;14.20;;
76729;SDS011;65653;53.106;18.046;2023-03-01T00:11:22;40.60;;;13.80;;
76729;SDS011;65653;53.106;18.046;2023-03-01T00:13:49;42.90;;;13.80;;
76729;SDS011;65653;53.106;18.046;2023-03-01T00:16:21;40.00;;;15.10;;
76729;SDS011;65653;53.106;18.046;2023-03-01T00:18:56;43.40;;;14.40;;
76729;SDS011;65653;53.106;18.046;2023-03-01T00:21:25;39.30;;;13.60;;
76729;SDS011;65653;53.106;18.046;2023-03-01T00:23:53;46.20;;;15.50;;
76729;SDS011;65653;53.106;18.046;2023-03-01T00:26:21;40.30;;;14.80;;
76729;SDS011;65653;53.106;18.046;2023-03-01T00:28:49;27.70;;;10.70;;
76729;SDS011;65653;53.106;18.046;2023-03-01T00:31:17;45.20;;;17.00;;
76729;SDS011;65653;53.106;18.046;2023-03-01T00:33:46;37.10;;;14.80;;
76729;SDS011;65653;53.106;18.046;2023-03-01T00:36:13;41.20;;;14.80;;
76729;SDS011;65653;53.106;18.046;2023-03-01T00:38:43;42.40;;;14.60;;
76729;SDS011;65653;53.106;18.046;2023-03-01T00:41:12;41.80;;;14.40;;
76729;SDS011;65653;53.106;18.046;2023-03-01T00:43:43;39.40;;;15.30;;
76729;SDS011;65653;53.106;18.046;2023-03-01T00:46:11;38.20;;;15.20;;
76729;SDS011;65653;53.106;18.046;2023-03-01T00:48:40;29.10;;;13.40;;
76729;SDS011;65653;53.106;18.046;2023-03-01T00:51:12;40.80;;;14.60;;
76729;SDS011;65653;53.106;18.046;2023-03-01T00:53:42;42.40;;;15.10;;
76729;SDS011;65653;53.106;18.046;2023-03-01T00:56:13;40.20;;;16.20;;
76729;SDS011;65653;53.106;18.046;2023-03-01T00:58:40;26.30;;;11.30;;
76729;SDS011;65653;53.106;18.046;2023-03-01T01:01:12;38.20;;;14.60;;
76729;SDS011;65653;53.106;18.046;2023-03-01T01:03:44;34.50;;;11.70;;
76729;SDS011;65653;53.106;18.046;2023-03-01T01:06:16;30.90;;;13.40;;
76729;SDS011;65653;53.106;18.046;2023-03-01T01:08:47;37.00;;;13.20;;
76729;SDS011;65653;53.106;18.046;2023-03-01T01:11:15;35.50;;;13.90;;
76729;SDS011;65653;53.106;18.046;2023-03-01T01:13:43;24.00;;;8.30;;
76729;SDS011;65653;53.106;18.046;2023-03-01T01:16:13;31.50;;;11.50;;
76729;SDS011;65653;53.106;18.046;2023-03-01T01:18:40;23.40;;;7.20;;
76729;SDS011;65653;53.106;18.046;2023-03-01T01:21:08;21.80;;;8.40;;
76729;SDS011;65653;53.106;18.046;2023-03-01T01:23:39;23.10;;;9.80;;
76729;SDS011;65653;53.106;18.046;2023-03-01T01:26:17;26.20;;;9.20;;
76729;SDS011;65653;53.106;18.046;2023-03-01T01:28:47;31.20;;;11.10;;
76729;SDS011;65653;53.106;18.046;2023-03-01T01:31:14;27.40;;;10.70;;
76729;SDS011;65653;53.106;18.046;2023-03-01T01:33:43;33.30;;;12.60;;
76729;SDS011;65653;53.106;18.046;2023-03-01T01:36:10;28.30;;;10.80;;
76729;SDS011;65653;53.106;18.046;2023-03-01T01:38:37;29.50;;;10.60;;
76729;SDS011;65653;53.106;18.046;2023-03-01T01:41:05;26.60;;;9.90;;
76729;SDS011;65653;53.106;18.046;2023-03-01T01:43:36;26.10;;;10.80;;
76729;SDS011;65653;53.106;18.046;2023-03-01T01:49:03;20.40;;;8.50;;
76729;SDS011;65653;53.106;18.046;2023-03-01T01:51:37;22.60;;;8.40;;
76729;SDS011;65653;53.106;18.046;2023-03-01T01:54:11;23.60;;;9.50;;
76729;SDS011;65653;53.106;18.046;2023-03-01T01:56:44;27.70;;;8.80;;
76729;SDS011;65653;53.106;18.046;2023-03-01T01:59:15;26.00;;;10.00;;
76729;SDS011;65653;53.106;18.046;2023-03-01T02:01:42;25.30;;;9.50;;
76729;SDS011;65653;53.106;18.046;2023-03-01T02:04:10;18.30;;;8.60;;
76729;SDS011;65653;53.106;18.046;2023-03-01T02:06:39;29.60;;;11.30;;
76729;SDS011;65653;53.106;18.046;2023-03-01T02:09:13;16.50;;;6.40;;
76729;SDS011;65653;53.106;18.046;2023-03-01T02:11:42;26.20;;;10.70;;
76729;SDS011;65653;53.106;18.046;2023-03-01T02:14:10;27.10;;;10.70;;
76729;SDS011;65653;53.106;18.046;2023-03-01T02:16:37;28.20;;;10.50;;
76729;SDS011;65653;53.106;18.046;2023-03-01T02:19:04;21.80;;;9.50;;
76729;SDS011;65653;53.106;18.046;2023-03-01T02:21:42;27.90;;;10.20;;
76729;SDS011;65653;53.106;18.046;2023-03-01T02:24:38;23.30;;;8.30;;
76729;SDS011;65653;53.106;18.046;2023-03-01T02:27:16;20.90;;;9.00;;
76729;SDS011;65653;53.106;18.046;2023-03-01T02:29:48;22.20;;;9.20;;
76729;SDS011;65653;53.106;18.046;2023-03-01T02:32:15;26.20;;;10.60;;
76729;SDS011;65653;53.106;18.046;2023-03-01T02:34:55;22.70;;;9.30;;
76729;SDS011;65653;53.106;18.046;2023-03-01T02:39:56;24.00;;;9.70;;
76729;SDS011;65653;53.106;18.046;2023-03-01T02:42:32;17.70;;;7.60;;
76729;SDS011;65653;53.106;18.046;2023-03-01T02:45:07;21.00;;;8.60;;
76729;SDS011;65653;53.106;18.046;2023-03-01T02:47:34;26.00;;;9.70;;
76729;SDS011;65653;53.106;18.046;2023-03-01T02:50:00;20.20;;;8.30;;
76729;SDS011;65653;53.106;18.046;2023-03-01T02:52:45;25.50;;;9.70;;
76729;SDS011;65653;53.106;18.046;2023-03-01T02:55:22;19.50;;;9.20;;
76729;SDS011;65653;53.106;18.046;2023-03-01T02:57:48;22.80;;;8.90;;
76729;SDS011;65653;53.106;18.046;2023-03-01T03:00:19;25.20;;;9.20;;
76729;SDS011;65653;53.106;18.046;2023-03-01T03:02:50;17.00;;;7.60;;
76729;SDS011;65653;53.106;18.046;2023-03-01T03:05:20;24.20;;;8.10;;
76729;SDS011;65653;53.106;18.046;2023-03-01T03:07:49;26.60;;;10.10;;
76729;SDS011;65653;53.106;18.046;2023-03-01T03:10:20;24.70;;;9.80;;
76729;SDS011;65653;53.106;18.046;2023-03-01T03:12:49;23.70;;;9.70;;
76729;SDS011;65653;53.106;18.046;2023-03-01T03:15:20;18.40;;;7.80;;
76729;SDS011;65653;53.106;18.046;2023-03-01T03:17:47;19.80;;;8.60;;
76729;SDS011;65653;53.106;18.046;2023-03-01T03:20:16;15.70;;;7.10;;
76729;SDS011;65653;53.106;18.046;2023-03-01T03:22:48;10.90;;;4.80;;
76729;SDS011;65653;53.106;18.046;2023-03-01T03:25:16;24.70;;;9.80;;
76729;SDS011;65653;53.106;18.046;2023-03-01T03:27:45;23.10;;;8.70;;
76729;SDS011;65653;53.106;18.046;2023-03-01T03:30:18;34.20;;;11.60;;
76729;SDS011;65653;53.106;18.046;2023-03-01T03:32:46;22.70;;;8.90;;
76729;SDS011;65653;53.106;18.046;2023-03-01T03:35:21;19.00;;;8.00;;
76729;SDS011;65653;53.106;18.046;2023-03-01T03:37:59;22.20;;;7.90;;
76729;SDS011;65653;53.106;18.046;2023-03-01T03:40:29;15.90;;;6.20;;
76729;SDS011;65653;53.106;18.046;2023-03-01T03:42:57;22.30;;;9.40;;
76729;SDS011;65653;53.106;18.046;2023-03-01T03:45:23;20.70;;;8.30;;
76729;SDS011;65653;53.106;18.046;2023-03-01T03:47:50;23.50;;;9.50;;
76729;SDS011;65653;53.106;18.046;2023-03-01T03:50:17;21.60;;;8.50;;
76729;SDS011;65653;53.106;18.046;2023-03-01T03:52:44;17.20;;;7.30;;
76729;SDS011;65653;53.106;18.046;2023-03-01T03:55:11;20.30;;;8.60;;
76729;SDS011;65653;53.106;18.046;2023-03-01T03:57:39;21.20;;;9.40;;
76729;SDS011;65653;53.106;18.046;2023-03-01T04:00:08;24.80;;;10.10;;
76729;SDS011;65653;53.106;18.046;2023-03-01T04:02:40;23.40;;;10.30;;
76729;SDS011;65653;53.106;18.046;2023-03-01T04:05:08;18.80;;;7.90;;
76729;SDS011;65653;53.106;18.046;2023-03-01T04:07:36;17.70;;;6.90;;
76729;SDS011;65653;53.106;18.046;2023-03-01T04:10:04;23.60;;;9.70;;
76729;SDS011;65653;53.106;18.046;2023-03-01T04:12:33;17.20;;;7.80;;
76729;SDS011;65653;53.106;18.046;2023-03-01T04:15:01;24.90;;;8.90;;
76729;SDS011;65653;53.106;18.046;2023-03-01T04:17:39;21.40;;;8.80;;
76729;SDS011;65653;53.106;18.046;2023-03-01T04:20:17;22.70;;;8.00;;
76729;SDS011;65653;53.106;18.046;2023-03-01T04:23:01;21.00;;;8.00;;
76729;SDS011;65653;53.106;18.046;2023-03-01T04:25:42;22.20;;;8.10;;
76729;SDS011;65653;53.106;18.046;2023-03-01T04:28:15;23.00;;;9.60;;
76729;SDS011;65653;53.106;18.046;2023-03-01T04:30:42;23.30;;;10.10;;
76729;SDS011;65653;53.106;18.046;2023-03-01T04:33:09;22.60;;;9.80;;
76729;SDS011;65653;53.106;18.046;2023-03-01T04:35:36;15.50;;;6.90;;
76729;SDS011;65653;53.106;18.046;2023-03-01T04:38:04;22.40;;;8.70;;
76729;SDS011;65653;53.106;18.046;2023-03-01T04:40:31;35.50;;;10.60;;
76729;SDS011;65653;53.106;18.046;2023-03-01T04:42:58;22.40;;;9.10;;
76729;SDS011;65653;53.106;18.046;2023-03-01T04:45:25;21.10;;;8.80;;
76729;SDS011;65653;53.106;18.046;2023-03-01T04:47:51;21.70;;;8.10;;
76729;SDS011;65653;53.106;18.046;2023-03-01T04:50:21;25.10;;;10.10;;
76729;SDS011;65653;53.106;18.046;2023-03-01T04:52:49;28.60;;;10.20;;
76729;SDS011;65653;53.106;18.046;2023-03-01T04:55:16;30.50;;;10.30;;
76729;SDS011;65653;53.106;18.046;2023-03-01T04:57:42;22.90;;;7.60;;
76729;SDS011;65653;53.106;18.046;2023-03-01T05:00:11;29.10;;;11.30;;
76729;SDS011;65653;53.106;18.046;2023-03-01T05:02:49;27.10;;;11.10;;
76729;SDS011;65653;53.106;18.046;2023-03-01T05:05:20;18.50;;;8.30;;
76729;SDS011;65653;53.106;18.046;2023-03-01T05:07:47;29.00;;;12.00;;
76729;SDS011;65653;53.106;18.046;2023-03-01T05:10:14;30.20;;;11.50;;
76729;SDS011;65653;53.106;18.046;2023-03-01T05:12:40;28.30;;;12.40;;
76729;SDS011;65653;53.106;18.046;2023-03-01T05:15:07;31.00;;;12.90;;
76729;SDS011;65653;53.106;18.046;2023-03-01T05:17:34;32.40;;;12.40;;
76729;SDS011;65653;53.106;18.046;2023-03-01T05:20:00;27.90;;;12.10;;
76729;SDS011;65653;53.106;18.046;2023-03-01T05:22:27;32.00;;;13.10;;
76729;SDS011;65653;53.106;18.046;2023-03-01T05:24:53;36.60;;;14.00;;
76729;SDS011;65653;53.106;18.046;2023-03-01T05:27:21;28.10;;;10.00;;
76729;SDS011;65653;53.106;18.046;2023-03-01T05:29:48;36.40;;;13.00;;
76729;SDS011;65653;53.106;18.046;2023-03-01T05:32:14;27.90;;;12.10;;
76729;SDS011;65653;53.106;18.046;2023-03-01T05:34:41;28.60;;;12.20;;
76729;SDS011;65653;53.106;18.046;2023-03-01T05:37:08;31.70;;;12.40;;
76729;SDS011;65653;53.106;18.046;2023-03-01T05:39:35;27.10;;;11.10;;
76729;SDS011;65653;53.106;18.046;2023-03-01T05:42:02;33.90;;;13.80;;
76729;SDS011;65653;53.106;18.046;2023-03-01T05:44:29;26.60;;;11.60;;
76729;SDS011;65653;53.106;18.046;2023-03-01T05:46:56;31.20;;;13.30;;
76729;SDS011;65653;53.106;18.046;2023-03-01T05:49:23;23.20;;;10.50;;
76729;SDS011;65653;53.106;18.046;2023-03-01T05:51:52;31.60;;;12.20;;
76729;SDS011;65653;53.106;18.046;2023-03-01T05:54:20;22.10;;;8.80;;
76729;SDS011;65653;53.106;18.046;2023-03-01T05:56:47;17.40;;;7.70;;
76729;SDS011;65653;53.106;18.046;2023-03-01T05:59:14;33.10;;;13.20;;
76729;SDS011;65653;53.106;18.046;2023-03-01T06:01:43;30.70;;;12.50;;
76729;SDS011;65653;53.106;18.046;2023-03-01T06:04:09;27.60;;;11.60;;
76729;SDS011;65653;53.106;18.046;2023-03-01T06:06:36;21.70;;;10.50;;
76729;SDS011;65653;53.106;18.046;2023-03-01T06:09:04;23.10;;;9.30;;
76729;SDS011;65653;53.106;18.046;2023-03-01T06:11:33;25.60;;;10.90;;
76729;SDS011;65653;53.106;18.046;2023-03-01T06:14:01;30.20;;;10.50;;
76729;SDS011;65653;53.106;18.046;2023-03-01T06:16:28;25.90;;;9.60;;
76729;SDS011;65653;53.106;18.046;2023-03-01T06:18:54;22.50;;;10.20;;
76729;SDS011;65653;53.106;18.046;2023-03-01T06:21:21;27.30;;;10.70;;
76729;SDS011;65653;53.106;18.046;2023-03-01T06:23:47;30.70;;;11.90;;
76729;SDS011;65653;53.106;18.046;2023-03-01T06:26:14;25.90;;;9.60;;
76729;SDS011;65653;53.106;18.046;2023-03-01T06:28:40;32.00;;;12.00;;
76729;SDS011;65653;53.106;18.046;2023-03-01T06:31:07;22.10;;;9.40;;
76729;SDS011;65653;53.106;18.046;2023-03-01T06:33:34;18.00;;;7.10;;
76729;SDS011;65653;53.106;18.046;2023-03-01T06:36:02;17.70;;;6.20;;
76729;SDS011;65653;53.106;18.046;2023-03-01T06:38:28;23.90;;;11.00;;
76729;SDS011;65653;53.106;18.046;2023-03-01T06:40:55;23.10;;;10.80;;
76729;SDS011;65653;53.106;18.046;2023-03-01T06:43:22;32.00;;;13.60;;
76729;SDS011;65653;53.106;18.046;2023-03-01T06:45:50;27.90;;;11.90;;
76729;SDS011;65653;53.106;18.046;2023-03-01T06:48:17;23.30;;;11.00;;
76729;SDS011;65653;53.106;18.046;2023-03-01T06:50:43;28.70;;;11.60;;
76729;SDS011;65653;53.106;18.046;2023-03-01T06:53:10;27.20;;;12.10;;
76729;SDS011;65653;53.106;18.046;2023-03-01T06:55:36;27.70;;;12.10;;
76729;SDS011;65653;53.106;18.046;2023-03-01T06:58:03;31.30;;;13.30;;
76729;SDS011;65653;53.106;18.046;2023-03-01T07:00:30;27.60;;;11.80;;
76729;SDS011;65653;53.106;18.046;2023-03-01T07:03:01;27.40;;;12.80;;
76729;SDS011;65653;53.106;18.046;2023-03-01T07:05:29;23.90;;;9.40;;
76729;SDS011;65653;53.106;18.046;2023-03-01T07:07:56;16.40;;;6.00;;
76729;SDS011;65653;53.106;18.046;2023-03-01T07:10:23;26.40;;;9.60;;
76729;SDS011;65653;53.106;18.046;2023-03-01T07:12:49;20.60;;;8.90;;
76729;SDS011;65653;53.106;18.046;2023-03-01T07:15:16;22.60;;;9.20;;
76729;SDS011;65653;53.106;18.046;2023-03-01T07:17:42;28.90;;;12.30;;
76729;SDS011;65653;53.106;18.046;2023-03-01T07:20:10;16.00;;;6.00;;
76729;SDS011;65653;53.106;18.046;2023-03-01T07:22:39;15.80;;;7.40;;
76729;SDS011;65653;53.106;18.046;2023-03-01T07:25:06;28.20;;;10.20;;
76729;SDS011;65653;53.106;18.046;2023-03-01T07:27:33;29.20;;;11.10;;
76729;SDS011;65653;53.106;18.046;2023-03-01T07:29:59;24.80;;;10.30;;
76729;SDS011;65653;53.106;18.046;2023-03-01T07:32:26;22.30;;;9.30;;
76729;SDS011;65653;53.106;18.046;2023-03-01T07:34:52;28.30;;;10.60;;
76729;SDS011;65653;53.106;18.046;2023-03-01T07:37:19;21.80;;;8.60;;
76729;SDS011;65653;53.106;18.046;2023-03-01T07:39:45;14.20;;;6.30;;
76729;SDS011;65653;53.106;18.046;2023-03-01T07:42:12;22.90;;;9.70;;
76729;SDS011;65653;53.106;18.046;2023-03-01T07:44:38;19.30;;;8.70;;
76729;SDS011;65653;53.106;18.046;2023-03-01T07:47:05;24.00;;;9.60;;
76729;SDS011;65653;53.106;18.046;2023-03-01T07:49:31;19.50;;;7.80;;
76729;SDS011;65653;53.106;18.046;2023-03-01T07:51:58;24.70;;;9.90;;
76729;SDS011;65653;53.106;18.046;2023-03-01T07:54:24;19.40;;;8.10;;
76729;SDS011;65653;53.106;18.046;2023-03-01T07:56:52;23.20;;;9.50;;
76729;SDS011;65653;53.106;18.046;2023-03-01T07:59:20;18.90;;;8.80;;
76729;SDS011;65653;53.106;18.046;2023-03-01T08:01:47;25.00;;;8.90;;
76729;SDS011;65653;53.106;18.046;2023-03-01T08:04:14;15.00;;;11.90;;
76729;SDS011;65653;53.106;18.046;2023-03-01T08:06:41;23.60;;;9.80;;
76729;SDS011;65653;53.106;18.046;2023-03-01T08:09:07;16.70;;;6.60;;
76729;SDS011;65653;53.106;18.046;2023-03-01T08:11:34;19.80;;;9.80;;
76729;SDS011;65653;53.106;18.046;2023-03-01T08:14:01;22.50;;;8.90;;
76729;SDS011;65653;53.106;18.046;2023-03-01T08:16:27;15.60;;;6.40;;
76729;SDS011;65653;53.106;18.046;2023-03-01T08:18:54;24.00;;;9.70;;
76729;SDS011;65653;53.106;18.046;2023-03-01T08:21:22;23.10;;;9.90;;
76729;SDS011;65653;53.106;18.046;2023-03-01T08:23:49;13.20;;;7.50;;
76729;SDS011;65653;53.106;18.046;2023-03-01T08:26:19;26.30;;;10.30;;
76729;SDS011;65653;53.106;18.046;2023-03-01T08:28:48;23.30;;;9.20;;
76729;SDS011;65653;53.106;18.046;2023-03-01T08:33:50;19.00;;;8.00;;
76729;SDS011;65653;53.106;18.046;2023-03-01T08:36:25;21.60;;;9.00;;
76729;SDS011;65653;53.106;18.046;2023-03-01T08:38:56;19.00;;;8.50;;
76729;SDS011;65653;53.106;18.046;2023-03-01T08:41:23;17.70;;;7.30;;
76729;SDS011;65653;53.106;18.046;2023-03-01T08:43:50;14.60;;;7.00;;
76729;SDS011;65653;53.106;18.046;2023-03-01T08:46:16;20.80;;;8.40;;
76729;SDS011;65653;53.106;18.046;2023-03-01T08:48:43;20.10;;;8.90;;
76729;SDS011;65653;53.106;18.046;2023-03-01T08:51:11;13.80;;;7.70;;
76729;SDS011;65653;53.106;18.046;2023-03-01T08:53:42;17.90;;;9.70;;
76729;SDS011;65653;53.106;18.046;2023-03-01T08:56:09;21.10;;;10.80;;
76729;SDS011;65653;53.106;18.046;2023-03-01T08:58:37;16.50;;;7.80;;
76729;SDS011;65653;53.106;18.046;2023-03-01T09:01:07;15.90;;;8.70;;
76729;SDS011;65653;53.106;18.046;2023-03-01T09:03:35;20.20;;;11.10;;
76729;SDS011;65653;53.106;18.046;2023-03-01T09:06:05;21.10;;;10.30;;
76729;SDS011;65653;53.106;18.046;2023-03-01T09:08:37;20.20;;;10.70;;
76729;SDS011;65653;53.106;18.046;2023-03-01T09:11:06;21.50;;;11.50;;
76729;SDS011;65653;53.106;18.046;2023-03-01T09:13:35;17.70;;;9.90;;
76729;SDS011;65653;53.106;18.046;2023-03-01T09:16:02;23.80;;;12.40;;
76729;SDS011;65653;53.106;18.046;2023-03-01T09:18:31;21.00;;;12.30;;
76729;SDS011;65653;53.106;18.046;2023-03-01T09:21:03;20.40;;;10.60;;
76729;SDS011;65653;53.106;18.046;2023-03-01T09:23:34;20.10;;;11.00;;
76729;SDS011;65653;53.106;18.046;2023-03-01T09:26:08;18.50;;;9.60;;
76729;SDS011;65653;53.106;18.046;2023-03-01T09:28:37;20.30;;;12.00;;
76729;SDS011;65653;53.106;18.046;2023-03-01T09:31:05;16.90;;;9.90;;
76729;SDS011;65653;53.106;18.046;2023-03-01T09:33:31;21.80;;;12.10;;
76729;SDS011;65653;53.106;18.046;2023-03-01T09:35:59;19.30;;;11.00;;
76729;SDS011;65653;53.106;18.046;2023-03-01T09:38:28;21.60;;;10.60;;
76729;SDS011;65653;53.106;18.046;2023-03-01T09:40:55;20.00;;;10.90;;
76729;SDS011;65653;53.106;18.046;2023-03-01T09:46:05;18.50;;;10.30;;
76729;SDS011;65653;53.106;18.046;2023-03-01T09:48:41;16.30;;;9.40;;
76729;SDS011;65653;53.106;18.046;2023-03-01T09:51:17;17.30;;;9.10;;
76729;SDS011;65653;53.106;18.046;2023-03-01T09:53:48;14.70;;;8.60;;
76729;SDS011;65653;53.106;18.046;2023-03-01T09:56:22;16.90;;;10.00;;
76729;SDS011;65653;53.106;18.046;2023-03-01T09:59:18;16.50;;;10.40;;
76729;SDS011;65653;53.106;18.046;2023-03-01T10:04:52;18.50;;;9.70;;
76729;SDS011;65653;53.106;18.046;2023-03-01T10:09:58;12.40;;;8.90;;
76729;SDS011;65653;53.106;18.046;2023-03-01T10:12:27;16.00;;;10.20;;
76729;SDS011;65653;53.106;18.046;2023-03-01T10:15:05;16.30;;;9.80;;
76729;SDS011;65653;53.106;18.046;2023-03-01T10:17:55;15.90;;;10.10;;
76729;SDS011;65653;53.106;18.046;2023-03-01T10:20:30;15.40;;;9.30;;
76729;SDS011;65653;53.106;18.046;2023-03-01T10:23:08;15.40;;;9.60;;
76729;SDS011;65653;53.106;18.046;2023-03-01T10:25:41;16.10;;;9.60;;
76729;SDS011;65653;53.106;18.046;2023-03-01T10:28:20;13.00;;;9.30;;
76729;SDS011;65653;53.106;18.046;2023-03-01T10:31:04;15.20;;;9.50;;
76729;SDS011;65653;53.106;18.046;2023-03-01T10:33:37;17.90;;;9.80;;
76729;SDS011;65653;53.106;18.046;2023-03-01T10:38:46;15.30;;;9.80;;
76729;SDS011;65653;53.106;18.046;2023-03-01T10:41:15;25.80;;;20.30;;
76729;SDS011;65653;53.106;18.046;2023-03-01T10:43:50;14.60;;;9.50;;
76729;SDS011;65653;53.106;18.046;2023-03-01T10:46:36;15.20;;;8.70;;
76729;SDS011;65653;53.106;18.046;2023-03-01T10:49:22;18.30;;;9.70;;
76729;SDS011;65653;53.106;18.046;2023-03-01T10:51:52;12.50;;;8.20;;
76729;SDS011;65653;53.106;18.046;2023-03-01T10:54:25;13.20;;;9.30;;
76729;SDS011;65653;53.106;18.046;2023-03-01T10:56:56;14.50;;;9.00;;
76729;SDS011;65653;53.106;18.046;2023-03-01T10:59:29;11.60;;;8.60;;
76729;SDS011;65653;53.106;18.046;2023-03-01T11:02:04;10.00;;;6.70;;
76729;SDS011;65653;53.106;18.046;2023-03-01T11:07:45;15.20;;;9.60;;
76729;SDS011;65653;53.106;18.046;2023-03-01T11:10:22;11.90;;;7.50;;
76729;SDS011;65653;53.106;18.046;2023-03-01T11:13:07;15.50;;;8.80;;
76729;SDS011;65653;53.106;18.046;2023-03-01T11:15:42;14.90;;;9.20;;
76729;SDS011;65653;53.106;18.046;2023-03-01T11:18:20;11.70;;;8.80;;
76729;SDS011;65653;53.106;18.046;2023-03-01T11:20:48;11.00;;;7.60;;
76729;SDS011;65653;53.106;18.046;2023-03-01T11:23:18;9.20;;;6.30;;
76729;SDS011;65653;53.106;18.046;2023-03-01T11:25:51;11.20;;;7.30;;
76729;SDS011;65653;53.106;18.046;2023-03-01T11:28:22;11.30;;;7.60;;
76729;SDS011;65653;53.106;18.046;2023-03-01T11:30:58;10.40;;;7.30;;
76729;SDS011;65653;53.106;18.046;2023-03-01T11:33:50;10.50;;;7.10;;
76729;SDS011;65653;53.106;18.046;2023-03-01T11:42:05;9.90;;;6.50;;
76729;SDS011;65653;53.106;18.046;2023-03-01T11:44:39;10.00;;;7.00;;
76729;SDS011;65653;53.106;18.046;2023-03-01T11:55:35;7.50;;;5.40;;
76729;SDS011;65653;53.106;18.046;2023-03-01T12:07:12;34.20;;;23.90;;
76729;SDS011;65653;53.106;18.046;2023-03-01T12:14:57;9.10;;;5.80;;
76729;SDS011;65653;53.106;18.046;2023-03-01T12:17:44;8.80;;;6.00;;
76729;SDS011;65653;53.106;18.046;2023-03-01T12:20:25;6.20;;;5.20;;
76729;SDS011;65653;53.106;18.046;2023-03-01T12:29:01;7.80;;;6.00;;
76729;SDS011;65653;53.106;18.046;2023-03-01T12:34:31;9.90;;;6.40;;
76729;SDS011;65653;53.106;18.046;2023-03-01T12:48:36;8.90;;;5.70;;
76729;SDS011;65653;53.106;18.046;2023-03-01T12:51:17;10.00;;;6.80;;
76729;SDS011;65653;53.106;18.046;2023-03-01T12:53:49;10.00;;;6.50;;
76729;SDS011;65653;53.106;18.046;2023-03-01T12:56:22;8.10;;;6.70;;
76729;SDS011;65653;53.106;18.046;2023-03-01T13:01:41;12.40;;;6.80;;
76729;SDS011;65653;53.106;18.046;2023-03-01T13:17:57;13.10;;;8.20;;
76729;SDS011;65653;53.106;18.046;2023-03-01T13:25:45;11.70;;;7.20;;
76729;SDS011;65653;53.106;18.046;2023-03-01T13:31:01;11.40;;;7.60;;
76729;SDS011;65653;53.106;18.046;2023-03-01T13:36:00;10.40;;;6.90;;
76729;SDS011;65653;53.106;18.046;2023-03-01T13:41:03;11.70;;;7.80;;
76729;SDS011;65653;53.106;18.046;2023-03-01T13:43:43;12.80;;;8.10;;
76729;SDS011;65653;53.106;18.046;2023-03-01T13:46:15;9.80;;;6.60;;
76729;SDS011;65653;53.106;18.046;2023-03-01T13:48:47;15.10;;;7.50;;
76729;SDS011;65653;53.106;18.046;2023-03-01T13:51:27;10.40;;;7.10;;
76729;SDS011;65653;53.106;18.046;2023-03-01T13:53:54;8.90;;;6.40;;
76729;SDS011;65653;53.106;18.046;2023-03-01T13:56:33;8.80;;;6.70;;
76729;SDS011;65653;53.106;18.046;2023-03-01T13:59:13;10.40;;;6.80;;
76729;SDS011;65653;53.106;18.046;2023-03-01T14:01:41;10.60;;;6.90;;
76729;SDS011;65653;53.106;18.046;2023-03-01T14:04:18;10.00;;;7.30;;
76729;SDS011;65653;53.106;18.046;2023-03-01T14:06:48;9.70;;;6.30;;
76729;SDS011;65653;53.106;18.046;2023-03-01T14:14:50;10.00;;;7.30;;
76729;SDS011;65653;53.106;18.046;2023-03-01T14:20:12;8.30;;;6.90;;
76729;SDS011;65653;53.106;18.046;2023-03-01T14:22:45;9.10;;;7.00;;
76729;SDS011;65653;53.106;18.046;2023-03-01T14:28:04;11.10;;;8.00;;
76729;SDS011;65653;53.106;18.046;2023-03-01T14:30:41;10.20;;;6.90;;
76729;SDS011;65653;53.106;18.046;2023-03-01T14:36:00;9.90;;;7.70;;
76729;SDS011;65653;53.106;18.046;2023-03-01T14:38:33;9.70;;;6.80;;
76729;SDS011;65653;53.106;18.046;2023-03-01T14:41:15;8.70;;;6.40;;
76729;SDS011;65653;53.106;18.046;2023-03-01T14:44:03;9.00;;;6.10;;
76729;SDS011;65653;53.106;18.046;2023-03-01T14:51:39;12.50;;;7.40;;
76729;SDS011;65653;53.106;18.046;2023-03-01T14:54:18;12.80;;;7.60;;
76729;SDS011;65653;53.106;18.046;2023-03-01T14:57:12;10.20;;;7.20;;
76729;SDS011;65653;53.106;18.046;2023-03-01T14:59:42;11.80;;;7.90;;
76729;SDS011;65653;53.106;18.046;2023-03-01T15:02:12;8.60;;;6.40;;
76729;SDS011;65653;53.106;18.046;2023-03-01T15:04:52;11.60;;;7.10;;
76729;SDS011;65653;53.106;18.046;2023-03-01T15:09:59;11.10;;;6.40;;
76729;SDS011;65653;53.106;18.046;2023-03-01T15:14:53;11.90;;;6.80;;
76729;SDS011;65653;53.106;18.046;2023-03-01T15:17:28;13.00;;;6.80;;
76729;SDS011;65653;53.106;18.046;2023-03-01T15:20:04;11.60;;;6.70;;
76729;SDS011;65653;53.106;18.046;2023-03-01T15:22:33;10.60;;;5.70;;
76729;SDS011;65653;53.106;18.046;2023-03-01T15:25:01;9.80;;;5.40;;
76729;SDS011;65653;53.106;18.046;2023-03-01T15:27:28;10.70;;;5.10;;
76729;SDS011;65653;53.106;18.046;2023-03-01T15:29:55;11.40;;;5.60;;
76729;SDS011;65653;53.106;18.046;2023-03-01T15:32:29;10.90;;;5.40;;
76729;SDS011;65653;53.106;18.046;2023-03-01T15:35:01;10.70;;;4.90;;
76729;SDS011;65653;53.106;18.046;2023-03-01T15:38:22;13.00;;;5.80;;
76729;SDS011;65653;53.106;18.046;2023-03-01T15:40:51;11.60;;;5.80;;
76729;SDS011;65653;53.106;18.046;2023-03-01T15:46:04;9.60;;;4.80;;
76729;SDS011;65653;53.106;18.046;2023-03-01T15:48:31;9.10;;;4.30;;
76729;SDS011;65653;53.106;18.046;2023-03-01T15:50:58;11.00;;;5.70;;
76729;SDS011;65653;53.106;18.046;2023-03-01T15:53:25;12.30;;;5.70;;
76729;SDS011;65653;53.106;18.046;2023-03-01T15:55:53;13.10;;;5.60;;
76729;SDS011;65653;53.106;18.046;2023-03-01T15:58:21;13.70;;;5.80;;
76729;SDS011;65653;53.106;18.046;2023-03-01T16:00:50;12.20;;;5.40;;
76729;SDS011;65653;53.106;18.046;2023-03-01T16:03:22;12.60;;;5.80;;
76729;SDS011;65653;53.106;18.046;2023-03-01T16:05:49;9.70;;;5.40;;
76729;SDS011;65653;53.106;18.046;2023-03-01T16:08:17;11.40;;;5.70;;
76729;SDS011;65653;53.106;18.046;2023-03-01T16:10:44;11.20;;;5.20;;
76729;SDS011;65653;53.106;18.046;2023-03-01T16:13:12;13.90;;;6.40;;
76729;SDS011;65653;53.106;18.046;2023-03-01T16:15:39;16.10;;;7.70;;
76729;SDS011;65653;53.106;18.046;2023-03-01T16:18:06;18.30;;;7.80;;
76729;SDS011;65653;53.106;18.046;2023-03-01T16:20:36;42.30;;;15.30;;
76729;SDS011;65653;53.106;18.046;2023-03-01T16:23:04;20.30;;;8.70;;
76729;SDS011;65653;53.106;18.046;2023-03-01T16:25:33;23.80;;;9.70;;
76729;SDS011;65653;53.106;18.046;2023-03-01T16:28:01;25.90;;;10.30;;
76729;SDS011;65653;53.106;18.046;2023-03-01T16:30:31;19.80;;;9.00;;
76729;SDS011;65653;53.106;18.046;2023-03-01T16:32:57;19.00;;;8.20;;
76729;SDS011;65653;53.106;18.046;2023-03-01T16:35:25;28.10;;;12.60;;
76729;SDS011;65653;53.106;18.046;2023-03-01T16:37:51;36.40;;;16.10;;
76729;SDS011;65653;53.106;18.046;2023-03-01T16:40:21;36.00;;;16.30;;
76729;SDS011;65653;53.106;18.046;2023-03-01T16:42:52;35.40;;;15.40;;
76729;SDS011;65653;53.106;18.046;2023-03-01T16:45:19;40.40;;;17.30;;